Time;durP1;ratioP1;P1;durP2;ratioP2;P2;SDS_P1;SDS_P2;PMS_P1;PMS_P2;Temp;Humidity;BMP_temperature;BMP_pressure;BME280_temperature;BME280_humidity;BME280_pressure;Samples;Min_cycle;Max_cycle;Signal;HPM_P1;HPM_P2
2023/04/03 00:00:41;;;;;;;3.50;2.65;;;1.30;99.90;;;;;;5061192;28;20052;-74
2023/04/03 00:03:06;;;;;;;2.92;2.42;;;1.30;99.90;;;;;;5064768;28;20056;-75
2023/04/03 00:05:32;;;;;;;4.75;2.75;;;1.30;99.90;;;;;;5064918;28;20056;-74
2023/04/03 00:07:58;;;;;;;4.43;2.92;;;1.30;99.90;;;;;;5063032;28;20075;-74
2023/04/03 00:10:24;;;;;;;5.82;2.20;;;1.30;99.90;;;;;;5066068;28;20055;-74
2023/04/03 00:12:50;;;;;;;6.82;2.33;;;1.30;99.90;;;;;;5060604;28;20056;-75
2023/04/03 00:15:15;;;;;;;3.35;2.33;;;1.20;99.90;;;;;;5055153;28;20139;-74
2023/04/03 00:17:41;;;;;;;6.85;2.90;;;1.20;99.90;;;;;;5064003;28;20051;-74
2023/04/03 00:20:07;;;;;;;4.13;2.50;;;1.20;99.90;;;;;;5064234;28;20044;-75
2023/04/03 00:22:33;;;;;;;3.63;2.20;;;1.20;99.90;;;;;;5067092;28;20052;-75
2023/04/03 00:24:59;;;;;;;4.18;2.60;;;1.20;99.90;;;;;;5068128;28;20097;-74
2023/04/03 00:27:24;;;;;;;3.63;2.42;;;1.20;99.90;;;;;;5065499;28;20517;-75
2023/04/03 00:29:50;;;;;;;4.10;2.03;;;1.10;99.90;;;;;;5062981;28;20575;-74
2023/04/03 00:32:16;;;;;;;8.77;2.60;;;1.10;99.90;;;;;;5067819;28;20118;-74
2023/04/03 00:34:41;;;;;;;7.13;2.60;;;1.10;99.90;;;;;;5062922;28;20422;-74
2023/04/03 00:37:07;;;;;;;3.63;2.60;;;1.10;99.90;;;;;;5065061;28;20037;-74
2023/04/03 00:39:33;;;;;;;4.25;2.30;;;1.00;99.90;;;;;;5058678;28;20489;-75
2023/04/03 00:41:58;;;;;;;2.70;2.22;;;1.00;99.90;;;;;;5066950;28;20176;-74
2023/04/03 00:44:33;;;;;;;4.25;2.42;;;1.00;99.90;;;;;;5057489;28;20045;-75
2023/04/03 00:46:59;;;;;;;3.70;2.33;;;0.90;99.90;;;;;;5065501;28;20044;-74
2023/04/03 00:49:26;;;;;;;3.80;2.40;;;0.90;99.90;;;;;;5058450;28;20094;-75
2023/04/03 00:51:52;;;;;;;4.75;2.78;;;0.90;99.90;;;;;;5062948;28;20048;-75
2023/04/03 00:54:18;;;;;;;5.45;2.65;;;0.90;99.90;;;;;;5066291;28;20053;-74
2023/04/03 00:56:45;;;;;;;7.00;2.95;;;0.80;99.90;;;;;;5057669;28;20049;-74
2023/04/03 00:59:15;;;;;;;3.15;2.80;;;0.80;99.90;;;;;;5059317;28;20044;-74
2023/04/03 01:01:41;;;;;;;8.82;2.90;;;0.80;99.90;;;;;;5063936;28;20044;-75
2023/04/03 01:04:30;;;;;;;3.33;2.33;;;0.70;99.90;;;;;;5055755;28;20099;-73
2023/04/03 01:07:01;;;;;;;4.53;2.97;;;0.70;99.90;;;;;;5062034;28;20048;-74
2023/04/03 01:09:28;;;;;;;5.70;3.28;;;0.70;99.90;;;;;;5047373;28;20623;-74
2023/04/03 01:11:53;;;;;;;3.97;2.45;;;0.70;99.90;;;;;;5061502;28;20044;-74
2023/04/03 01:14:19;;;;;;;7.47;2.88;;;0.70;99.90;;;;;;5054546;28;20048;-75
2023/04/03 01:16:54;;;;;;;5.70;2.88;;;0.60;99.90;;;;;;5064816;28;20044;-73
2023/04/03 01:19:23;;;;;;;6.93;2.50;;;0.70;99.90;;;;;;5060476;28;20132;-74
2023/04/03 01:21:58;;;;;;;8.07;3.33;;;0.60;99.90;;;;;;5060337;28;20043;-74
2023/04/03 01:24:34;;;;;;;3.85;2.85;;;0.60;99.90;;;;;;5054895;28;20095;-74
2023/04/03 01:27:02;;;;;;;4.90;3.30;;;0.60;99.90;;;;;;5060049;28;20650;-74
2023/04/03 01:29:28;;;;;;;9.43;2.95;;;0.50;99.90;;;;;;5039539;28;20049;-74
2023/04/03 01:31:56;;;;;;;5.07;2.90;;;0.50;99.90;;;;;;5054247;28;20056;-75
2023/04/03 01:34:23;;;;;;;4.57;2.55;;;0.50;99.90;;;;;;5060194;28;20087;-75
2023/04/03 01:36:50;;;;;;;7.15;3.45;;;0.40;99.90;;;;;;5066489;28;20068;-75
2023/04/03 01:39:16;;;;;;;3.45;2.60;;;0.40;99.90;;;;;;5066329;28;20513;-74
2023/04/03 01:41:42;;;;;;;5.20;3.33;;;0.40;99.90;;;;;;5059338;28;20045;-74
2023/04/03 01:44:08;;;;;;;4.90;2.75;;;0.30;99.90;;;;;;5055802;28;20040;-74
2023/04/03 01:46:34;;;;;;;5.30;3.15;;;0.30;99.90;;;;;;5048432;28;20045;-74
2023/04/03 01:49:01;;;;;;;4.63;2.78;;;0.30;99.90;;;;;;5051181;28;20386;-74
2023/04/03 01:51:27;;;;;;;6.55;3.47;;;0.30;99.90;;;;;;5053502;28;20745;-74
2023/04/03 01:53:52;;;;;;;4.00;2.88;;;0.30;99.90;;;;;;5055808;28;20127;-74
2023/04/03 01:56:18;;;;;;;5.63;2.42;;;0.30;99.90;;;;;;5069489;28;20108;-74
2023/04/03 01:58:44;;;;;;;4.03;3.33;;;0.30;99.90;;;;;;5064279;28;20049;-74
2023/04/03 02:01:10;;;;;;;7.05;3.15;;;0.30;99.90;;;;;;5061462;28;20498;-74
2023/04/03 02:03:35;;;;;;;4.03;2.63;;;0.30;99.90;;;;;;5052834;28;20051;-74
2023/04/03 02:06:01;;;;;;;7.18;3.63;;;0.30;99.90;;;;;;5078713;28;20051;-75
2023/04/03 02:08:27;;;;;;;5.93;2.80;;;0.30;99.90;;;;;;5062384;28;20044;-74
2023/04/03 02:10:52;;;;;;;10.68;2.85;;;0.30;99.90;;;;;;5055165;28;20052;-74
2023/04/03 02:13:19;;;;;;;9.48;3.30;;;0.30;99.90;;;;;;5066055;28;20532;-74
2023/04/03 02:15:45;;;;;;;4.25;2.92;;;0.20;99.90;;;;;;5061416;28;20405;-75
2023/04/03 02:18:11;;;;;;;9.35;4.35;;;0.20;99.90;;;;;;5069200;28;20048;-74
2023/04/03 02:20:37;;;;;;;6.70;3.72;;;0.30;99.90;;;;;;5069645;28;20056;-74
2023/04/03 02:23:03;;;;;;;8.35;4.10;;;0.20;99.90;;;;;;5070701;28;20059;-75
2023/04/03 02:25:30;;;;;;;10.10;4.05;;;0.30;99.90;;;;;;5069120;28;20081;-75
2023/04/03 02:27:56;;;;;;;5.82;3.70;;;0.30;99.90;;;;;;5047176;28;20055;-75
2023/04/03 02:30:22;;;;;;;6.82;3.10;;;0.30;99.90;;;;;;5068312;28;20037;-74
2023/04/03 02:32:48;;;;;;;3.60;3.20;;;0.30;99.90;;;;;;5062998;28;20051;-74
2023/04/03 02:35:13;;;;;;;7.40;2.95;;;0.30;99.90;;;;;;5067949;28;20434;-75
2023/04/03 02:37:39;;;;;;;11.82;3.70;;;0.30;99.90;;;;;;5069945;28;20445;-75
2023/04/03 02:40:05;;;;;;;5.35;3.10;;;0.30;99.90;;;;;;5048085;28;20097;-75
2023/04/03 02:42:32;;;;;;;10.73;3.05;;;0.30;99.90;;;;;;5067301;28;20070;-75
2023/04/03 02:44:57;;;;;;;4.53;2.70;;;0.30;99.90;;;;;;5069031;28;20076;-75
2023/04/03 02:47:23;;;;;;;5.03;3.10;;;0.30;99.90;;;;;;5069188;28;20138;-75
2023/04/03 02:49:49;;;;;;;3.95;2.83;;;0.30;99.90;;;;;;5063927;28;20098;-75
2023/04/03 02:52:15;;;;;;;7.32;3.72;;;0.30;99.90;;;;;;5068452;28;20644;-75
2023/04/03 02:54:41;;;;;;;9.68;3.30;;;0.40;99.90;;;;;;5067524;28;20036;-75
2023/04/03 02:57:09;;;;;;;7.47;2.70;;;0.40;99.90;;;;;;5062095;28;20045;-75
2023/04/03 02:59:36;;;;;;;5.53;3.25;;;0.40;99.90;;;;;;5064513;28;20391;-75
2023/04/03 03:02:02;;;;;;;4.60;3.10;;;0.40;99.90;;;;;;5064747;28;20242;-75
2023/04/03 03:04:27;;;;;;;6.88;3.58;;;0.40;99.90;;;;;;5068145;28;20160;-75
2023/04/03 03:06:53;;;;;;;4.88;3.55;;;0.40;99.90;;;;;;5056931;28;20134;-75
2023/04/03 03:09:19;;;;;;;3.85;2.70;;;0.30;99.90;;;;;;5060653;28;20430;-75
2023/04/03 03:11:45;;;;;;;4.55;2.78;;;0.30;99.90;;;;;;5059704;28;20044;-75
2023/04/03 03:14:12;;;;;;;5.57;2.78;;;0.30;99.90;;;;;;5065086;28;20051;-75
2023/04/03 03:16:38;;;;;;;8.30;3.33;;;0.30;99.90;;;;;;5065188;28;20045;-75
2023/04/03 03:19:06;;;;;;;3.80;2.63;;;0.20;99.90;;;;;;5066169;28;20063;-74
2023/04/03 03:21:33;;;;;;;5.05;3.15;;;0.20;99.90;;;;;;5066786;28;20618;-75
2023/04/03 03:23:59;;;;;;;7.78;3.53;;;0.10;99.90;;;;;;5059988;28;20049;-75
2023/04/03 03:26:25;;;;;;;7.30;3.50;;;0.10;99.90;;;;;;5067475;28;20568;-74
2023/04/03 03:28:50;;;;;;;6.78;3.75;;;0.10;99.90;;;;;;5061245;28;20734;-75
2023/04/03 03:31:16;;;;;;;7.13;3.83;;;0.10;99.90;;;;;;5063609;28;20518;-75
2023/04/03 03:33:42;;;;;;;6.25;3.88;;;0.00;99.90;;;;;;5063674;28;20047;-74
2023/04/03 03:36:07;;;;;;;7.72;4.45;;;-0.10;99.90;;;;;;5062861;28;20040;-74
2023/04/03 03:38:33;;;;;;;6.70;4.07;;;-0.20;99.90;;;;;;5062523;28;20037;-74
2023/04/03 03:40:59;;;;;;;6.82;4.13;;;-0.30;99.90;;;;;;5067140;28;20181;-75
2023/04/03 03:43:25;;;;;;;7.90;3.78;;;-0.30;99.90;;;;;;5067173;28;20135;-74
2023/04/03 03:45:52;;;;;;;7.95;4.35;;;-0.40;99.90;;;;;;5067227;28;20040;-74
2023/04/03 03:48:18;;;;;;;12.00;5.15;;;-0.40;99.90;;;;;;5061287;28;20116;-74
2023/04/03 03:50:44;;;;;;;7.82;4.10;;;-0.40;99.90;;;;;;5065912;28;20104;-74
2023/04/03 03:53:10;;;;;;;12.60;4.72;;;-0.40;99.90;;;;;;5062750;28;20040;-74
2023/04/03 03:55:35;;;;;;;9.32;4.85;;;-0.40;99.90;;;;;;5052318;28;20052;-73
2023/04/03 03:58:01;;;;;;;12.73;4.70;;;-0.40;99.90;;;;;;5068652;28;20033;-73
2023/04/03 04:00:27;;;;;;;8.13;5.35;;;-0.40;99.90;;;;;;5066716;28;20524;-73
2023/04/03 04:02:53;;;;;;;10.07;5.38;;;-0.50;99.90;;;;;;5068443;28;20064;-73
2023/04/03 04:05:19;;;;;;;9.68;5.35;;;-0.50;99.90;;;;;;5066909;28;20478;-74
2023/04/03 04:07:45;;;;;;;9.25;5.18;;;-0.50;99.90;;;;;;5056755;28;20489;-74
2023/04/03 04:10:11;;;;;;;14.07;5.30;;;-0.50;99.90;;;;;;5061726;28;20104;-73
2023/04/03 04:12:37;;;;;;;11.00;5.97;;;-0.50;99.90;;;;;;5068111;28;20052;-74
2023/04/03 04:15:03;;;;;;;11.80;6.38;;;-0.50;99.90;;;;;;5066822;28;20478;-74
2023/04/03 04:17:29;;;;;;;8.10;5.20;;;-0.50;99.90;;;;;;5067034;28;20047;-74
2023/04/03 04:19:55;;;;;;;9.10;5.70;;;-0.50;99.90;;;;;;5067055;28;20752;-74
2023/04/03 04:22:20;;;;;;;12.00;6.60;;;-0.50;99.90;;;;;;5068066;28;20044;-74
2023/04/03 04:24:46;;;;;;;14.18;5.95;;;-0.50;99.90;;;;;;5066210;28;20080;-74
2023/04/03 04:27:12;;;;;;;10.57;6.63;;;-0.50;99.90;;;;;;5063983;28;20045;-74
2023/04/03 04:29:37;;;;;;;7.80;5.97;;;-0.50;99.90;;;;;;5058182;28;20517;-74
2023/04/03 04:32:03;;;;;;;10.13;6.10;;;-0.50;99.90;;;;;;5067028;28;20127;-74
2023/04/03 04:34:29;;;;;;;13.02;6.50;;;-0.60;99.90;;;;;;5066757;28;20045;-74
2023/04/03 04:36:55;;;;;;;8.70;6.10;;;-0.50;99.90;;;;;;5066713;28;20048;-74
2023/04/03 04:39:21;;;;;;;19.65;6.70;;;-0.50;99.90;;;;;;5066580;28;20060;-74
2023/04/03 04:41:48;;;;;;;12.18;7.60;;;-0.50;99.90;;;;;;5065389;28;20080;-74
2023/04/03 04:44:13;;;;;;;14.52;7.03;;;-0.60;99.90;;;;;;5051382;28;20041;-74
2023/04/03 04:46:39;;;;;;;10.75;7.13;;;-0.50;99.90;;;;;;5048011;28;20049;-74
2023/04/03 04:49:05;;;;;;;12.10;7.10;;;-0.60;99.90;;;;;;5067674;28;20504;-74
2023/04/03 04:51:31;;;;;;;17.58;7.85;;;-0.60;99.90;;;;;;5046686;28;20054;-74
2023/04/03 04:53:56;;;;;;;9.90;6.63;;;-0.50;99.90;;;;;;5048159;28;20059;-74
2023/04/03 04:56:22;;;;;;;16.38;7.40;;;-0.50;99.90;;;;;;5056715;28;20037;-74
2023/04/03 04:58:48;;;;;;;12.55;7.57;;;-0.50;99.90;;;;;;5060121;28;20045;-74
2023/04/03 05:01:14;;;;;;;8.95;6.85;;;-0.50;99.90;;;;;;5064346;28;20072;-74
2023/04/03 05:03:40;;;;;;;13.45;7.13;;;-0.50;99.90;;;;;;5053146;28;20060;-74
2023/04/03 05:06:05;;;;;;;10.70;6.97;;;-0.50;99.90;;;;;;5057820;28;20064;-74
2023/04/03 05:08:31;;;;;;;8.18;6.93;;;-0.50;99.90;;;;;;5065974;28;20139;-74
2023/04/03 05:10:57;;;;;;;12.07;7.20;;;-0.40;99.90;;;;;;5043141;28;20080;-74
2023/04/03 05:13:23;;;;;;;13.63;7.80;;;-0.30;99.90;;;;;;5058944;28;20045;-74
2023/04/03 05:15:48;;;;;;;13.35;7.53;;;0.00;99.90;;;;;;5064123;28;20040;-74
2023/04/03 05:18:14;;;;;;;14.65;7.65;;;0.30;99.90;;;;;;5062464;28;20072;-73
2023/04/03 05:20:41;;;;;;;9.65;6.60;;;0.60;99.90;;;;;;5060395;28;20151;-74
2023/04/03 05:23:06;;;;;;;11.65;7.20;;;1.00;99.90;;;;;;5069647;28;20068;-74
2023/04/03 05:25:32;;;;;;;10.80;7.53;;;1.30;99.90;;;;;;5071289;28;20080;-74
2023/04/03 05:27:58;;;;;;;9.15;7.07;;;1.80;99.90;;;;;;5070142;28;20076;-73
2023/04/03 05:30:24;;;;;;;15.18;7.93;;;2.30;99.90;;;;;;5069855;28;20559;-74
2023/04/03 05:32:50;;;;;;;11.52;8.02;;;2.80;99.90;;;;;;5065490;28;20181;-74
2023/04/03 05:35:16;;;;;;;12.93;7.70;;;3.40;99.90;;;;;;5065225;28;20078;-74
2023/04/03 05:37:41;;;;;;;10.45;6.85;;;3.80;99.90;;;;;;5060725;28;20057;-74
2023/04/03 05:40:08;;;;;;;10.45;6.75;;;4.10;99.90;;;;;;5058857;28;20041;-74
2023/04/03 05:42:34;;;;;;;11.18;7.22;;;3.70;99.90;;;;;;5066481;28;20044;-74
2023/04/03 05:45:01;;;;;;;10.68;7.07;;;3.30;99.90;;;;;;5069085;28;20040;-74
2023/04/03 05:47:26;;;;;;;7.40;6.53;;;3.10;99.90;;;;;;5069228;28;20067;-74
2023/04/03 05:49:52;;;;;;;11.15;8.10;;;3.60;99.90;;;;;;5058974;28;20497;-74
2023/04/03 05:52:23;;;;;;;7.63;6.47;;;4.50;99.90;;;;;;5059006;28;20056;-74
2023/04/03 05:54:49;;;;;;;11.05;7.13;;;5.40;99.90;;;;;;5058293;28;20119;-74
2023/04/03 05:57:15;;;;;;;13.45;7.68;;;6.10;99.90;;;;;;5064637;28;20397;-74
2023/04/03 05:59:43;;;;;;;12.43;8.05;;;6.40;99.90;;;;;;5067306;28;20500;-74
2023/04/03 06:02:12;;;;;;;8.95;7.53;;;6.30;99.90;;;;;;5060508;28;20057;-74
2023/04/03 06:04:38;;;;;;;12.55;8.27;;;6.00;99.90;;;;;;5048776;28;20140;-74
2023/04/03 06:07:04;;;;;;;15.77;8.13;;;5.30;99.90;;;;;;5046612;28;20135;-74
2023/04/03 06:09:30;;;;;;;14.68;8.35;;;4.70;99.90;;;;;;5064048;28;20296;-74
2023/04/03 06:12:00;;;;;;;15.23;8.45;;;4.70;99.90;;;;;;5052335;28;20048;-73
2023/04/03 06:14:26;;;;;;;10.52;8.10;;;4.80;99.90;;;;;;5060258;28;20058;-74
2023/04/03 06:16:53;;;;;;;12.38;8.88;;;4.50;99.90;;;;;;5065777;28;20502;-74
2023/04/03 06:19:19;;;;;;;16.90;9.40;;;3.90;99.90;;;;;;5065280;28;20147;-74
2023/04/03 06:21:46;;;;;;;17.88;9.93;;;3.40;99.90;;;;;;5060501;28;20105;-74
2023/04/03 06:24:15;;;;;;;9.55;8.40;;;3.10;99.90;;;;;;5055365;28;20127;-74
2023/04/03 06:26:41;;;;;;;12.00;8.32;;;2.90;99.90;;;;;;5057824;28;20045;-74
2023/04/03 06:29:07;;;;;;;11.52;9.43;;;2.70;99.90;;;;;;5067993;28;20036;-74
2023/04/03 06:31:33;;;;;;;12.73;7.72;;;2.60;99.90;;;;;;5067223;28;20040;-74
2023/04/03 06:33:58;;;;;;;18.35;10.10;;;2.50;99.90;;;;;;5064182;28;20037;-74
2023/04/03 06:36:25;;;;;;;18.13;10.02;;;2.40;99.90;;;;;;5062501;28;20117;-73
2023/04/03 06:38:51;;;;;;;16.60;9.07;;;2.50;99.90;;;;;;5067459;28;20424;-73
2023/04/03 06:41:17;;;;;;;12.80;9.75;;;2.60;99.90;;;;;;5058076;28;20049;-73
2023/04/03 06:43:44;;;;;;;14.57;9.10;;;2.90;99.90;;;;;;5060841;28;20049;-74
2023/04/03 06:46:17;;;;;;;16.95;7.95;;;3.30;99.90;;;;;;5067230;28;20047;-75
2023/04/03 06:48:44;;;;;;;8.07;7.10;;;3.20;99.90;;;;;;5062823;28;20116;-75
2023/04/03 06:51:30;;;;;;;12.73;7.57;;;3.00;99.90;;;;;;5067227;28;20053;-75
2023/04/03 06:53:58;;;;;;;14.43;7.63;;;2.90;99.90;;;;;;5059345;28;20122;-75
2023/04/03 06:56:25;;;;;;;11.52;7.65;;;3.10;99.90;;;;;;5063298;28;20469;-75
2023/04/03 06:58:54;;;;;;;8.75;7.28;;;3.30;99.90;;;;;;5055856;28;20060;-75
2023/04/03 07:01:20;;;;;;;15.77;7.53;;;3.40;99.90;;;;;;5069075;28;20459;-75
2023/04/03 07:03:47;;;;;;;13.35;7.55;;;3.40;99.90;;;;;;5069040;28;20064;-75
2023/04/03 07:06:15;;;;;;;12.38;7.07;;;3.40;99.90;;;;;;5064318;28;20060;-75
2023/04/03 07:08:42;;;;;;;13.77;7.38;;;3.50;99.90;;;;;;5054873;28;20426;-75
2023/04/03 07:11:09;;;;;;;10.98;7.03;;;3.50;99.90;;;;;;5063263;28;20052;-75
2023/04/03 07:13:38;;;;;;;13.38;7.13;;;3.50;99.90;;;;;;5063074;28;20052;-75
2023/04/03 07:16:06;;;;;;;9.93;6.32;;;3.50;99.90;;;;;;5056781;28;20155;-76
2023/04/03 07:18:33;;;;;;;11.45;6.65;;;3.50;99.90;;;;;;5066298;28;20049;-75
2023/04/03 07:21:00;;;;;;;15.90;5.50;;;3.60;99.90;;;;;;5063387;28;20578;-75
2023/04/03 07:23:26;;;;;;;9.63;6.65;;;3.60;99.90;;;;;;5060287;28;20049;-75
2023/04/03 07:25:52;;;;;;;9.07;5.40;;;3.70;99.90;;;;;;5055066;28;20144;-76
2023/04/03 07:28:22;;;;;;;10.95;6.60;;;3.80;99.90;;;;;;5059711;28;20126;-76
2023/04/03 07:31:11;;;;;;;10.63;5.85;;;3.90;99.90;;;;;;5063911;28;20037;-76
2023/04/03 07:33:38;;;;;;;9.15;5.70;;;3.90;99.90;;;;;;5062392;28;20524;-76
2023/04/03 07:36:07;;;;;;;9.05;4.85;;;4.00;99.90;;;;;;5055978;28;20846;-76
2023/04/03 07:38:33;;;;;;;;;;;4.10;99.90;;;;;;5064772;28;20048;-76
2023/04/03 07:40:59;;;;;;;9.65;4.97;;;4.20;99.90;;;;;;5063673;28;20386;-75
2023/04/03 07:43:24;;;;;;;6.53;4.00;;;4.20;99.90;;;;;;5059837;28;20059;-76
2023/04/03 07:45:51;;;;;;;9.35;4.60;;;4.30;99.90;;;;;;5057099;28;20136;-75
2023/04/03 07:48:26;;;;;;;6.85;4.28;;;4.20;99.90;;;;;;5062283;28;20037;-75
2023/04/03 07:50:52;;;;;;;8.95;4.22;;;4.30;99.90;;;;;;5057931;28;20041;-76
2023/04/03 07:53:18;;;;;;;6.28;4.40;;;4.30;99.90;;;;;;5063946;28;20045;-75
2023/04/03 07:55:47;;;;;;;8.57;4.13;;;4.40;99.90;;;;;;5064311;28;20048;-75
2023/04/03 07:58:16;;;;;;;8.02;3.60;;;4.50;99.90;;;;;;5066211;28;20044;-74
2023/04/03 08:00:44;;;;;;;12.60;4.55;;;4.70;99.90;;;;;;5068063;28;20045;-74
2023/04/03 08:03:11;;;;;;;9.80;4.70;;;4.80;99.90;;;;;;5052206;28;20140;-74
2023/04/03 08:05:38;;;;;;;4.75;4.15;;;4.90;99.90;;;;;;5064679;28;20044;-74
2023/04/03 08:08:05;;;;;;;15.98;4.22;;;5.00;99.90;;;;;;5067443;28;20075;-73
2023/04/03 08:10:31;;;;;;;8.43;4.03;;;5.00;99.90;;;;;;5063348;28;20497;-74
2023/04/03 08:12:57;;;;;;;4.25;3.28;;;5.10;99.90;;;;;;5068457;28;20131;-74
2023/04/03 08:15:23;;;;;;;23.63;4.93;;;5.10;99.90;;;;;;5065552;28;20164;-72
2023/04/03 08:17:49;;;;;;;6.97;3.78;;;5.20;99.90;;;;;;5066286;28;20052;-74
2023/04/03 08:20:14;;;;;;;7.78;4.90;;;5.30;99.90;;;;;;5055353;28;20044;-74
2023/04/03 08:22:40;;;;;;;6.10;4.40;;;5.40;99.90;;;;;;5064819;28;20045;-74
2023/04/03 08:25:06;;;;;;;11.75;4.15;;;5.60;99.90;;;;;;5065857;28;20582;-74
2023/04/03 08:27:32;;;;;;;13.23;3.85;;;5.70;99.90;;;;;;5059244;28;20041;-73
2023/04/03 08:29:58;;;;;;;5.07;3.42;;;5.80;99.90;;;;;;5063570;28;20075;-73
2023/04/03 08:32:24;;;;;;;31.52;3.95;;;5.80;99.90;;;;;;5067178;28;20037;-74
2023/04/03 08:34:49;;;;;;;7.40;4.68;;;5.90;99.90;;;;;;5058010;28;20044;-74
2023/04/03 08:37:16;;;;;;;9.90;4.32;;;6.00;99.90;;;;;;5066758;28;20374;-73
2023/04/03 08:39:43;;;;;;;5.45;3.80;;;6.10;99.90;;;;;;5060216;28;20053;-73
2023/04/03 08:42:34;;;;;;;7.30;3.08;;;6.10;99.90;;;;;;5068255;28;20058;-73
2023/04/03 08:45:16;;;;;;;4.75;2.88;;;6.20;99.90;;;;;;5056427;28;20059;-73
2023/04/03 08:47:48;;;;;;;10.23;3.63;;;6.30;99.90;;;;;;5050179;28;20037;-73
2023/04/03 08:50:21;;;;;;;5.43;3.28;;;6.40;99.90;;;;;;5065384;28;20051;-73
2023/04/03 08:52:55;;;;;;;7.18;2.75;;;6.60;99.90;;;;;;5050185;28;20045;-73
2023/04/03 08:55:40;;;;;;;3.33;2.70;;;6.60;99.90;;;;;;5057550;28;20048;-73
2023/04/03 08:58:11;;;;;;;4.70;2.75;;;6.60;99.90;;;;;;5047280;28;20071;-73
2023/04/03 09:01:16;;;;;;;5.47;2.47;;;6.70;99.90;;;;;;5067836;28;20416;-74
2023/04/03 09:03:42;;;;;;;8.82;3.40;;;6.70;97.80;;;;;;5070261;28;20049;-74
2023/04/03 09:06:32;;;;;;;5.88;3.30;;;6.60;95.20;;;;;;5067274;28;20410;-73
2023/04/03 09:09:10;;;;;;;5.38;3.22;;;6.60;98.80;;;;;;5071626;28;20397;-73
2023/04/03 09:12:01;;;;;;;5.15;2.40;;;6.60;99.30;;;;;;5071824;28;20540;-74
2023/04/03 09:14:47;;;;;;;5.53;3.25;;;6.60;86.40;;;;;;5067490;28;20050;-74
2023/04/03 09:17:16;;;;;;;5.05;2.88;;;6.80;93.10;;;;;;5058231;28;20087;-73
2023/04/03 09:20:06;;;;;;;5.35;3.03;;;7.00;94.30;;;;;;5060747;28;20072;-73
2023/04/03 09:22:41;;;;;;;10.80;3.72;;;7.20;86.40;;;;;;5062980;28;20064;-74
2023/04/03 09:25:15;;;;;;;8.02;2.78;;;7.30;82.70;;;;;;5071489;28;20101;-74
2023/04/03 09:27:41;;;;;;;6.47;2.17;;;7.20;78.00;;;;;;5071591;28;20457;-74
2023/04/03 09:30:13;;;;;;;3.33;2.45;;;7.20;78.60;;;;;;5070642;28;20040;-73
2023/04/03 09:32:39;;;;;;;3.00;2.10;;;7.30;75.30;;;;;;5055057;28;20049;-74
2023/04/03 09:35:31;;;;;;;4.45;2.55;;;7.30;72.90;;;;;;5063141;28;20036;-73
2023/04/03 09:38:13;;;;;;;4.20;2.53;;;7.40;72.00;;;;;;5066203;28;20625;-73
2023/04/03 09:40:43;;;;;;;6.18;2.72;;;7.50;74.10;;;;;;5066996;28;20061;-73
2023/04/03 09:43:27;;;;;;;5.10;2.30;;;7.70;74.90;;;;;;5069405;28;20054;-73
2023/04/03 09:45:55;;;;;;;4.68;2.20;;;7.80;72.70;;;;;;5071019;28;20051;-74
2023/04/03 09:48:27;;;;;;;7.03;2.42;;;7.80;71.90;;;;;;5062074;28;20080;-74
2023/04/03 09:50:56;;;;;;;5.32;2.33;;;8.00;69.90;;;;;;5054763;28;20443;-73
2023/04/03 09:53:32;;;;;;;7.82;2.13;;;8.00;67.60;;;;;;5062794;28;20112;-73
2023/04/03 09:55:59;;;;;;;9.80;2.20;;;7.90;66.40;;;;;;5069448;28;20048;-74
2023/04/03 09:58:28;;;;;;;8.23;2.47;;;8.00;68.30;;;;;;5063609;28;20048;-74
2023/04/03 10:00:57;;;;;;;3.30;1.95;;;8.10;67.20;;;;;;5066191;28;20066;-74
2023/04/03 10:03:30;;;;;;;;;;;8.20;65.30;;;;;;5062148;28;20056;-74
2023/04/03 10:05:58;;;;;;;5.00;1.98;;;8.20;64.00;;;;;;5068514;28;19924;-74
2023/04/03 10:08:27;;;;;;;2.83;1.50;;;8.00;65.00;;;;;;5070577;28;20078;-74
2023/04/03 10:11:25;;;;;;;6.80;2.58;;;8.00;65.60;;;;;;5063330;28;20124;-74
2023/04/03 10:13:59;;;;;;;5.60;2.10;;;8.00;66.00;;;;;;5066206;28;20053;-75
2023/04/03 10:16:50;;;;;;;4.15;2.28;;;7.80;63.20;;;;;;5062486;28;20459;-74
2023/04/03 10:19:50;;;;;;;5.10;2.72;;;7.90;64.60;;;;;;5061114;28;20528;-74
2023/04/03 10:22:32;;;;;;;5.10;2.47;;;8.10;65.70;;;;;;5066540;28;20135;-74
2023/04/03 10:25:14;;;;;;;4.05;2.28;;;8.30;66.00;;;;;;5061945;28;20127;-74
2023/04/03 10:27:55;;;;;;;5.30;2.30;;;8.50;63.00;;;;;;5068114;28;20052;-74
2023/04/03 10:31:06;;;;;;;5.40;2.25;;;8.60;62.90;;;;;;5055966;28;20084;-75
2023/04/03 10:33:46;;;;;;;6.97;2.17;;;8.40;61.90;;;;;;5053080;28;20128;-74
2023/04/03 10:36:46;;;;;;;4.72;2.47;;;8.40;63.00;;;;;;5059011;28;20560;-74
2023/04/03 10:39:39;;;;;;;4.85;3.10;;;8.40;64.50;;;;;;5062501;28;20116;-74
2023/04/03 10:42:05;;;;;;;3.42;2.35;;;8.50;63.60;;;;;;5061531;28;20044;-74
2023/04/03 10:44:46;;;;;;;4.07;2.35;;;8.70;63.60;;;;;;5064380;28;20093;-74
2023/04/03 10:47:19;;;;;;;3.47;2.63;;;8.90;65.00;;;;;;5061983;28;20075;-74
2023/04/03 10:50:12;;;;;;;8.32;2.97;;;9.10;62.70;;;;;;5062875;28;20107;-74
2023/04/03 10:53:04;;;;;;;4.18;2.40;;;8.90;61.50;;;;;;5056058;28;20100;-75
2023/04/03 10:56:01;;;;;;;6.72;2.85;;;8.70;61.40;;;;;;5053255;28;20080;-75
2023/04/03 10:58:32;;;;;;;4.90;2.05;;;8.80;62.70;;;;;;5061561;28;20043;-75
2023/04/03 11:01:05;;;;;;;5.00;2.53;;;8.90;59.60;;;;;;5065558;28;20480;-74
2023/04/03 11:03:40;;;;;;;5.88;2.55;;;9.00;60.20;;;;;;5053400;28;20127;-74
2023/04/03 11:06:09;;;;;;;2.95;2.33;;;9.10;59.10;;;;;;5068433;28;20048;-74
2023/04/03 11:08:42;;;;;;;5.90;2.47;;;8.90;57.80;;;;;;5068685;28;20040;-75
2023/04/03 11:11:21;;;;;;;2.63;2.10;;;9.00;59.70;;;;;;5068775;28;20040;-75
2023/04/03 11:14:02;;;;;;;8.00;2.25;;;9.10;59.00;;;;;;5061234;28;20412;-74
2023/04/03 11:16:30;;;;;;;5.00;2.45;;;9.10;59.50;;;;;;5064270;28;20068;-74
2023/04/03 11:18:59;;;;;;;;;;;9.10;59.90;;;;;;5065681;28;20405;-75
2023/04/03 11:21:46;;;;;;;5.00;2.20;;;9.20;58.70;;;;;;5067086;28;19920;-74
2023/04/03 11:24:22;;;;;;;3.47;2.10;;;9.20;59.00;;;;;;5066534;28;20452;-74
2023/04/03 11:26:49;;;;;;;4.07;2.15;;;9.30;60.00;;;;;;5061151;28;20122;-74
2023/04/03 11:29:21;;;;;;;3.83;2.05;;;9.50;59.10;;;;;;5059113;28;20436;-74
2023/04/03 11:31:50;;;;;;;5.25;2.17;;;9.60;58.10;;;;;;5058144;28;20052;-74
2023/04/03 11:34:40;;;;;;;11.18;2.83;;;9.50;59.30;;;;;;5062072;28;20080;-74
2023/04/03 11:37:37;;;;;;;4.80;2.70;;;9.40;56.70;;;;;;5063873;28;20048;-75
2023/04/03 11:40:19;;;;;;;3.17;2.45;;;9.40;54.80;;;;;;5065827;28;20060;-75
2023/04/03 11:43:05;;;;;;;3.75;2.35;;;9.30;57.30;;;;;;5063245;28;20494;-74
2023/04/03 11:45:36;;;;;;;6.95;2.67;;;9.40;58.60;;;;;;5059125;28;20604;-74
2023/04/03 11:48:28;;;;;;;4.90;2.65;;;9.40;58.10;;;;;;5059549;28;20092;-75
2023/04/03 11:50:55;;;;;;;3.63;2.50;;;9.40;58.70;;;;;;5053182;28;20163;-74
2023/04/03 11:53:36;;;;;;;8.70;2.90;;;9.30;58.10;;;;;;5058494;28;20049;-75
2023/04/03 11:56:30;;;;;;;5.95;2.92;;;9.50;58.60;;;;;;5063780;28;20052;-75
2023/04/03 11:59:14;;;;;;;3.60;2.45;;;9.70;58.50;;;;;;5057809;28;20052;-75
2023/04/03 12:01:50;;;;;;;6.32;2.42;;;9.80;56.50;;;;;;5059655;28;20101;-75
2023/04/03 12:04:18;;;;;;;8.80;2.40;;;10.00;58.00;;;;;;5066149;28;20059;-75
2023/04/03 12:06:47;;;;;;;8.38;3.03;;;9.90;56.90;;;;;;5040492;28;20048;-74
2023/04/03 12:09:30;;;;;;;3.35;2.35;;;9.80;56.40;;;;;;5056338;28;20044;-75
2023/04/03 12:12:01;;;;;;;5.15;2.72;;;9.80;57.70;;;;;;5062391;28;20072;-75
2023/04/03 12:14:28;;;;;;;6.47;2.83;;;9.70;57.60;;;;;;5068017;28;20040;-74
2023/04/03 12:16:57;;;;;;;6.75;2.53;;;9.70;57.70;;;;;;5066373;28;20050;-75
2023/04/03 12:19:44;;;;;;;3.25;2.72;;;9.80;57.90;;;;;;5066469;28;20052;-75
2023/04/03 12:22:13;;;;;;;3.27;1.90;;;9.90;58.30;;;;;;5067381;28;20040;-75
2023/04/03 12:24:45;;;;;;;4.35;2.50;;;9.90;58.30;;;;;;5066309;28;20303;-74
2023/04/03 12:27:19;;;;;;;9.88;3.58;;;9.90;58.40;;;;;;5058566;28;20413;-75
2023/04/03 12:30:11;;;;;;;3.83;2.60;;;9.90;57.90;;;;;;5058182;28;20056;-75
2023/04/03 12:32:40;;;;;;;5.20;2.58;;;9.80;55.90;;;;;;5052809;28;20056;-74
2023/04/03 12:35:06;;;;;;;7.32;2.90;;;9.90;57.50;;;;;;5065954;28;20155;-75
2023/04/03 12:37:53;;;;;;;5.93;3.10;;;10.00;58.50;;;;;;5065995;28;20132;-74
2023/04/03 12:40:31;;;;;;;2.37;2.17;;;10.00;57.70;;;;;;5065456;28;20068;-75
2023/04/03 12:43:34;;;;;;;5.00;3.03;;;10.00;55.20;;;;;;5067866;28;20052;-75
2023/04/03 12:46:08;;;;;;;6.50;3.38;;;9.90;53.90;;;;;;5060950;28;20049;-75
2023/04/03 12:48:47;;;;;;;4.13;2.80;;;9.90;57.10;;;;;;5054977;28;20036;-75
2023/04/03 12:51:20;;;;;;;5.32;3.00;;;9.80;58.10;;;;;;5055568;28;20131;-74
2023/04/03 12:53:46;;;;;;;3.47;2.15;;;9.60;56.80;;;;;;5061781;28;20040;-75
2023/04/03 12:56:28;;;;;;;9.75;2.83;;;9.50;56.20;;;;;;5064365;28;20056;-74
2023/04/03 12:59:12;;;;;;;4.30;2.63;;;9.50;56.60;;;;;;5065276;28;20505;-74
2023/04/03 13:01:37;;;;;;;3.60;2.80;;;9.40;54.90;;;;;;5057118;28;20049;-75
2023/04/03 13:04:04;;;;;;;2.60;2.28;;;9.50;56.60;;;;;;5061832;28;20063;-74
2023/04/03 13:06:42;;;;;;;6.25;2.75;;;9.50;57.00;;;;;;5066579;28;20053;-74
2023/04/03 13:09:21;;;;;;;5.75;2.50;;;9.50;55.90;;;;;;5059024;28;20056;-73